Time;durP1;ratioP1;P1;durP2;ratioP2;P2;SDS_P1;SDS_P2;PMS_P1;PMS_P2;Temp;Humidity;BMP_temperature;BMP_pressure;BME280_temperature;BME280_humidity;BME280_pressure;Samples;Min_cycle;Max_cycle;Signal;HPM_P1;HPM_P2
2023/07/11 00:01:40;;;;;;;20.75;8.05;;;;;;;24.09;57.71;100662.69;5111432;28;20092;-88
2023/07/11 00:04:06;;;;;;;17.10;7.25;;;;;;;24.04;57.55;100663.31;5110914;28;20016;-89
2023/07/11 00:06:32;;;;;;;23.17;7.80;;;;;;;24.16;57.55;100678.16;5110505;28;20104;-90
2023/07/11 00:08:57;;;;;;;8.80;6.95;;;;;;;24.14;57.51;100673.94;5092574;28;20121;-89
2023/07/11 00:11:24;;;;;;;10.88;7.45;;;;;;;24.06;57.26;100668.63;5113382;28;20020;-89
2023/07/11 00:13:50;;;;;;;14.70;7.30;;;;;;;24.09;56.99;100680.03;5114294;28;20086;-88
2023/07/11 00:16:18;;;;;;;13.13;7.40;;;;;;;24.07;56.16;100659.31;5115099;28;20059;-89
2023/07/11 00:18:44;;;;;;;37.22;7.50;;;;;;;23.89;55.84;100634.34;5113881;28;20020;-88
2023/07/11 00:21:09;;;;;;;14.15;6.32;;;;;;;23.92;55.42;100636.69;5114776;28;20020;-87
2023/07/11 00:23:35;;;;;;;9.70;5.30;;;;;;;23.99;55.18;100645.78;5115400;28;20042;-88
2023/07/11 00:26:01;;;;;;;10.55;6.68;;;;;;;24.09;54.84;100657.22;5114365;28;20035;-88
2023/07/11 00:28:26;;;;;;;16.10;5.80;;;;;;;24.17;55.12;100659.75;5124296;28;20024;-88
2023/07/11 00:30:52;;;;;;;8.07;5.68;;;;;;;24.21;54.37;100661.88;5116097;28;20032;-90
2023/07/11 00:33:18;;;;;;;10.32;6.43;;;;;;;24.17;54.53;100652.38;5114486;28;20563;-88
2023/07/11 00:35:46;;;;;;;14.80;5.60;;;;;;;24.03;54.51;100630.56;5114774;28;20034;-89
2023/07/11 00:38:12;;;;;;;12.90;6.30;;;;;;;24.19;54.42;100650.25;5114767;28;20058;-89
2023/07/11 00:40:46;;;;;;;11.40;6.28;;;;;;;24.29;54.19;100658.06;5090513;28;20100;-91
2023/07/11 00:43:14;;;;;;;10.00;5.70;;;;;;;24.15;54.38;100628.91;5083351;28;20551;-88
2023/07/11 00:46:03;;;;;;;13.15;6.15;;;;;;;24.31;54.31;100659.53;5072101;28;20392;-88
2023/07/11 00:48:33;;;;;;;12.73;6.03;;;;;;;24.27;54.39;100644.53;5071192;28;20715;-88
2023/07/11 00:50:59;;;;;;;7.97;5.45;;;;;;;24.28;54.52;100653.59;5071992;28;20037;-88
2023/07/11 00:53:26;;;;;;;15.13;5.43;;;;;;;24.26;54.27;100636.50;5074632;28;20028;-88
2023/07/11 00:55:51;;;;;;;8.77;6.05;;;;;;;24.20;54.50;100615.34;5075598;28;20051;-87
2023/07/11 00:58:19;;;;;;;13.57;5.88;;;;;;;24.27;54.38;100624.44;5089160;28;20029;-87
2023/07/11 01:00:45;;;;;;;10.43;6.10;;;;;;;24.26;54.38;100639.25;5077664;28;20059;-91
2023/07/11 01:03:11;;;;;;;12.43;6.05;;;;;;;24.24;54.62;100622.13;5071828;28;20074;-88
2023/07/11 01:05:38;;;;;;;24.27;6.20;;;;;;;24.33;54.36;100638.19;5054728;28;20490;-89
2023/07/11 01:08:04;;;;;;;27.70;6.43;;;;;;;24.20;54.41;100601.63;5070958;28;20032;-88
2023/07/11 01:10:29;;;;;;;15.65;6.35;;;;;;;24.15;54.16;100593.19;5072406;28;20098;-88
2023/07/11 01:13:00;;;;;;;12.80;5.63;;;;;;;24.22;54.26;100621.47;5114452;28;20398;-89
2023/07/11 01:15:25;;;;;;;13.20;5.43;;;;;;;24.15;54.18;100602.28;5115147;28;20082;-88
2023/07/11 01:17:51;;;;;;;11.27;6.25;;;;;;;24.23;54.38;100626.78;5115898;28;20047;-91
2023/07/11 01:20:16;;;;;;;10.05;7.47;;;;;;;24.13;54.93;100609.00;5115952;28;20103;-89
2023/07/11 01:22:43;;;;;;;23.85;9.43;;;;;;;24.20;55.40;100634.59;5127816;28;20091;-90
2023/07/11 01:25:14;;;;;;;28.83;12.73;;;;;;;24.08;56.95;100639.88;5102149;28;20080;-87
2023/07/11 01:27:45;;;;;;;22.37;11.43;;;;;;;23.96;57.62;100618.72;5113696;28;20066;-88
2023/07/11 01:30:13;;;;;;;26.95;10.93;;;;;;;24.02;57.18;100634.38;5094911;28;20045;-90
2023/07/11 01:32:39;;;;;;;25.30;11.18;;;;;;;23.96;57.63;100626.97;5095158;28;20028;-89
2023/07/11 01:35:05;;;;;;;27.48;11.43;;;;;;;23.61;58.11;100598.84;5112936;28;20099;-89
2023/07/11 01:37:31;;;;;;;24.17;11.48;;;;;;;23.73;58.30;100630.13;5112942;28;20051;-89
2023/07/11 01:39:56;;;;;;;25.90;12.00;;;;;;;23.69;58.59;100640.72;5112979;28;20445;-89
2023/07/11 01:42:23;;;;;;;18.63;10.57;;;;;;;23.63;58.93;100647.03;5112821;28;20032;-88
2023/07/11 01:44:49;;;;;;;18.58;11.77;;;;;;;23.38;59.28;100607.47;5112894;28;20032;-88
2023/07/11 01:47:14;;;;;;;34.55;10.57;;;;;;;23.47;59.36;100639.19;5113091;28;20028;-89
2023/07/11 01:49:40;;;;;;;32.88;10.57;;;;;;;23.39;59.34;100653.13;5113326;28;20037;-89
2023/07/11 01:52:18;;;;;;;26.63;11.93;;;;;;;23.45;59.40;100663.28;5112327;28;20023;-89
2023/07/11 01:54:44;;;;;;;23.00;10.02;;;;;;;23.35;59.47;100643.56;5112733;28;20024;-90
2023/07/11 01:57:09;;;;;;;16.70;9.52;;;;;;;23.42;59.63;100652.69;5094292;28;20101;-89
2023/07/11 01:59:36;;;;;;;39.42;8.95;;;;;;;23.35;59.19;100654.53;5094725;28;20036;-90
2023/07/11 02:02:03;;;;;;;18.45;9.32;;;;;;;23.28;59.41;100642.69;5113346;28;20024;-89
2023/07/11 02:04:29;;;;;;;28.42;8.30;;;;;;;23.34;59.56;100652.84;5094743;28;20084;-89
2023/07/11 02:06:55;;;;;;;14.25;7.85;;;;;;;23.29;59.42;100644.41;5113246;28;20476;-90
2023/07/11 02:09:21;;;;;;;17.10;8.02;;;;;;;23.27;59.36;100644.59;5095581;28;20042;-88
2023/07/11 02:11:47;;;;;;;13.82;7.03;;;;;;;23.27;58.96;100638.28;5112896;28;20395;-91
2023/07/11 02:14:14;;;;;;;19.13;7.60;;;;;;;23.31;58.75;100636.78;5112562;28;20031;-88
2023/07/11 02:16:44;;;;;;;15.68;8.50;;;;;;;23.24;59.35;100647.75;5113080;28;20089;-89
2023/07/11 02:19:10;;;;;;;31.63;10.07;;;;;;;23.16;59.61;100631.47;5113628;28;20024;-89
2023/07/11 02:21:35;;;;;;;22.42;9.52;;;;;;;23.29;59.76;100655.38;5115045;28;20024;-88
2023/07/11 02:24:01;;;;;;;24.30;10.07;;;;;;;23.23;60.19;100656.19;5122048;28;20043;-88
2023/07/11 02:26:26;;;;;;;29.58;10.75;;;;;;;23.19;60.17;100643.94;5114829;28;20613;-88
2023/07/11 02:28:52;;;;;;;22.90;9.30;;;;;;;23.15;60.10;100631.66;5112331;28;20034;-88
2023/07/11 02:31:17;;;;;;;24.55;9.20;;;;;;;23.19;59.95;100632.94;5112483;28;20035;-89
2023/07/11 02:33:43;;;;;;;31.58;9.50;;;;;;;23.21;59.87;100648.16;5111196;28;20452;-89
2023/07/11 02:36:08;;;;;;;16.90;9.25;;;;;;;23.14;60.24;100646.47;5112597;28;20487;-88
2023/07/11 02:38:34;;;;;;;19.30;9.05;;;;;;;23.13;60.27;100661.22;5113096;28;20016;-88
2023/07/11 02:40:59;;;;;;;14.40;8.88;;;;;;;22.97;59.92;100629.50;5126141;28;20036;-93
2023/07/11 02:43:24;;;;;;;27.90;13.30;;;;;;;23.09;60.05;100668.16;5117627;28;20099;-88
2023/07/11 02:45:51;;;;;;;22.27;10.10;;;;;;;23.09;59.94;100674.50;5112068;28;20023;-89
2023/07/11 02:48:16;;;;;;;26.52;9.82;;;;;;;23.06;60.43;100676.81;5111893;28;20596;-89
2023/07/11 02:50:42;;;;;;;34.53;9.90;;;;;;;22.84;60.79;100639.59;5112265;28;20055;-89
2023/07/11 02:53:07;;;;;;;25.80;10.70;;;;;;;23.03;60.98;100677.22;5112432;28;20028;-89
2023/07/11 02:55:32;;;;;;;18.30;9.73;;;;;;;23.07;60.67;100682.09;5111870;28;20026;-88
2023/07/11 02:57:58;;;;;;;21.08;9.90;;;;;;;23.03;60.68;100688.19;5111700;28;20106;-88
2023/07/11 03:00:23;;;;;;;15.10;8.90;;;;;;;22.93;60.73;100676.75;5111885;28;20024;-91
2023/07/11 03:02:49;;;;;;;17.60;8.88;;;;;;;22.88;60.62;100662.78;5112777;28;20084;-91
2023/07/11 03:05:14;;;;;;;23.75;10.30;;;;;;;22.87;60.48;100661.13;5111743;28;20032;-88
2023/07/11 03:07:40;;;;;;;23.20;8.85;;;;;;;22.92;60.28;100669.56;5112808;28;20074;-88
2023/07/11 03:10:06;;;;;;;15.73;9.05;;;;;;;22.83;60.25;100651.59;5093685;28;20399;-89
2023/07/11 03:12:31;;;;;;;21.70;8.68;;;;;;;22.96;60.33;100668.13;5112154;28;20495;-88
2023/07/11 03:14:57;;;;;;;23.73;8.90;;;;;;;22.85;60.34;100646.75;5094156;28;20023;-89
2023/07/11 03:17:22;;;;;;;16.52;8.40;;;;;;;22.96;60.30;100665.38;5113569;28;20091;-87
2023/07/11 03:19:48;;;;;;;21.52;8.07;;;;;;;22.81;59.93;100651.81;5095727;28;20024;-87
2023/07/11 03:22:13;;;;;;;40.45;7.70;;;;;;;22.74;60.34;100660.00;5114183;28;20031;-88
2023/07/11 03:24:39;;;;;;;25.45;7.82;;;;;;;22.54;60.31;100633.47;5117481;28;20091;-88
2023/07/11 03:27:04;;;;;;;18.90;8.70;;;;;;;22.72;59.92;100663.97;5118826;28;20038;-94
2023/07/11 03:29:30;;;;;;;27.60;8.90;;;;;;;22.72;59.78;100653.84;5131646;28;20054;-91
2023/07/11 03:31:56;;;;;;;21.77;8.88;;;;;;;22.89;59.38;100667.25;5135246;28;20042;-93
2023/07/11 03:34:21;;;;;;;15.02;8.05;;;;;;;23.01;59.41;100690.28;5134958;28;20034;-93
2023/07/11 03:36:46;;;;;;;15.63;8.25;;;;;;;22.75;59.54;100639.75;5133148;28;20023;-91
2023/07/11 03:39:12;;;;;;;15.65;8.10;;;;;;;23.06;59.36;100690.53;5116882;28;20035;-89
2023/07/11 03:41:38;;;;;;;28.92;9.65;;;;;;;22.90;60.03;100671.69;5133216;28;20178;-88
2023/07/11 03:44:03;;;;;;;23.17;9.55;;;;;;;22.93;60.23;100665.78;5121062;28;20091;-89
2023/07/11 03:46:29;;;;;;;21.95;10.25;;;;;;;22.99;60.59;100687.78;5116065;28;20072;-87
2023/07/11 03:48:59;;;;;;;26.85;10.30;;;;;;;22.88;60.72;100660.06;5120187;28;20016;-89
2023/07/11 03:51:25;;;;;;;33.55;10.93;;;;;;;23.04;60.44;100685.25;5124842;28;20051;-94
2023/07/11 03:53:50;;;;;;;23.50;9.32;;;;;;;23.02;60.65;100676.38;5121105;28;20662;-92
2023/07/11 03:56:16;;;;;;;28.92;11.30;;;;;;;22.98;60.67;100666.88;5117719;28;20531;-88
2023/07/11 03:58:41;;;;;;;25.85;9.73;;;;;;;23.04;60.07;100662.44;5116135;28;20580;-91
2023/07/11 04:01:06;;;;;;;31.85;9.85;;;;;;;23.11;59.85;100671.56;5115117;28;20692;-83
2023/07/11 04:03:32;;;;;;;22.13;9.48;;;;;;;23.33;59.71;100707.97;5113329;28;20023;-79
2023/07/11 04:05:57;;;;;;;28.58;10.90;;;;;;;23.38;59.60;100698.06;5113320;28;20046;-80
2023/07/11 04:08:23;;;;;;;28.70;9.77;;;;;;;23.37;59.02;100684.50;5113370;28;20414;-81
2023/07/11 04:10:48;;;;;;;29.33;10.40;;;;;;;23.42;59.28;100688.41;5116052;28;20024;-84
2023/07/11 04:13:14;;;;;;;24.08;9.30;;;;;;;23.55;58.63;100695.78;5098801;28;20455;-83
2023/07/11 04:15:40;;;;;;;12.55;7.72;;;;;;;23.53;58.24;100678.69;5116659;28;20053;-87
2023/07/11 04:18:05;;;;;;;39.58;10.32;;;;;;;23.51;58.00;100670.69;5120187;28;20490;-87
2023/07/11 04:20:31;;;;;;;27.88;9.43;;;;;;;23.58;57.92;100682.50;5100152;28;20471;-88
2023/07/11 04:22:56;;;;;;;50.75;12.95;;;;;;;23.66;57.66;100690.56;5138617;28;20008;-90
2023/07/11 04:25:21;;;;;;;30.60;9.63;;;;;;;23.80;57.55;100713.38;5135594;28;20027;-81
2023/07/11 04:27:47;;;;;;;26.73;8.98;;;;;;;23.88;57.53;100710.47;5117069;28;20027;-82
2023/07/11 04:30:13;;;;;;;27.85;9.43;;;;;;;23.94;57.58;100719.75;5115197;28;20023;-81
2023/07/11 04:32:38;;;;;;;20.52;9.73;;;;;;;23.83;57.53;100702.84;5075028;28;20109;-82
2023/07/11 04:35:11;;;;;;;21.08;10.63;;;;;;;24.05;57.50;100724.63;5074711;28;20118;-83
2023/07/11 04:37:37;;;;;;;35.45;10.77;;;;;;;23.92;57.59;100714.47;5082202;28;20099;-81
2023/07/11 04:40:03;;;;;;;19.70;9.05;;;;;;;23.97;57.47;100713.84;5078336;28;20068;-80
2023/07/11 04:42:29;;;;;;;21.95;9.10;;;;;;;24.10;57.29;100713.84;5051116;28;20040;-83
2023/07/11 04:44:54;;;;;;;30.02;9.27;;;;;;;24.20;57.13;100714.31;5069556;28;20820;-81
2023/07/11 04:47:20;;;;;;;18.80;8.15;;;;;;;24.24;56.84;100721.09;5066933;28;21034;-81
2023/07/11 04:49:46;;;;;;;32.40;9.93;;;;;;;24.31;56.76;100728.25;5067235;28;20118;-81
2023/07/11 04:52:11;;;;;;;16.92;9.10;;;;;;;24.33;56.50;100714.31;5067207;28;20417;-79
2023/07/11 04:54:36;;;;;;;24.88;8.00;;;;;;;24.48;56.29;100727.84;5067180;28;20051;-80
2023/07/11 04:57:02;;;;;;;29.45;7.80;;;;;;;24.54;55.99;100719.59;5066618;28;20033;-82
2023/07/11 04:59:28;;;;;;;21.73;8.80;;;;;;;24.65;56.09;100721.66;5067564;28;20036;-80
2023/07/11 05:01:53;;;;;;;34.40;10.10;;;;;;;24.76;55.74;100723.78;5066782;28;20037;-79
2023/07/11 05:04:19;;;;;;;22.92;8.60;;;;;;;24.77;55.39;100708.94;5095129;28;20055;-91
2023/07/11 05:06:47;;;;;;;31.70;10.10;;;;;;;24.86;55.15;100710.44;5109586;28;20026;-87
2023/07/11 05:09:14;;;;;;;22.67;8.15;;;;;;;25.00;54.98;100719.53;5104658;28;20047;-83
2023/07/11 05:11:40;;;;;;;29.20;8.88;;;;;;;25.04;54.45;100718.03;5092351;28;20424;-84
2023/07/11 05:14:05;;;;;;;19.92;8.93;;;;;;;25.04;54.58;100715.28;5096029;28;20036;-86
2023/07/11 05:16:31;;;;;;;25.40;8.05;;;;;;;25.12;54.33;100714.19;5104037;28;20032;-87
2023/07/11 05:18:58;;;;;;;34.13;11.65;;;;;;;25.21;54.69;100719.22;5095601;28;20546;-85
2023/07/11 05:21:26;;;;;;;32.05;9.60;;;;;;;25.26;54.44;100722.16;5091977;28;20024;-82
2023/07/11 05:23:51;;;;;;;38.28;9.48;;;;;;;25.30;54.27;100709.66;5094007;28;20275;-81
2023/07/11 05:26:18;;;;;;;28.27;8.63;;;;;;;25.42;53.99;100718.94;5100984;28;20032;-86
2023/07/11 05:28:44;;;;;;;27.42;9.13;;;;;;;25.48;53.53;100716.34;5102335;28;20031;-87
2023/07/11 05:31:10;;;;;;;27.73;8.63;;;;;;;25.59;53.18;100716.56;5091984;28;20098;-80
2023/07/11 05:33:36;;;;;;;22.55;8.90;;;;;;;25.60;53.02;100717.38;5071497;28;20123;-80
2023/07/11 05:36:34;;;;;;;25.83;8.07;;;;;;;25.73;52.86;100718.16;5092426;28;20035;-84
2023/07/11 05:39:03;;;;;;;21.50;8.80;;;;;;;25.80;52.85;100718.97;5036397;28;20049;-82
2023/07/11 05:41:29;;;;;;;18.67;7.93;;;;;;;25.75;52.50;100696.72;5020036;28;20050;-85
2023/07/11 05:43:55;;;;;;;21.80;7.63;;;;;;;25.95;52.50;100727.75;5007633;28;20026;-91
2023/07/11 05:46:22;;;;;;;25.50;8.25;;;;;;;25.96;52.85;100718.41;5011664;28;20138;-91
2023/07/11 05:48:48;;;;;;;33.17;9.20;;;;;;;25.91;52.98;100709.97;5013322;28;20029;-88
2023/07/11 05:51:15;;;;;;;35.17;9.48;;;;;;;25.90;53.05;100696.44;5012359;28;20049;-88
2023/07/11 05:53:41;;;;;;;41.42;14.18;;;;;;;26.08;53.15;100709.44;4996841;28;20138;-93
2023/07/11 05:56:06;;;;;;;49.05;13.80;;;;;;;26.22;52.90;100706.38;5013890;28;20038;-89
2023/07/11 05:58:33;;;;;;;13.95;8.95;;;;;;;26.32;52.34;100703.97;5018263;28;20563;-85
2023/07/11 06:01:00;;;;;;;25.25;9.35;;;;;;;26.34;52.33;100687.19;5020453;28;20061;-85
2023/07/11 06:03:27;;;;;;;32.45;10.00;;;;;;;26.46;52.21;100707.44;5021806;28;20053;-88
2023/07/11 06:05:58;;;;;;;24.42;9.98;;;;;;;26.54;52.06;100698.03;5023133;28;20096;-89
2023/07/11 06:08:23;;;;;;;34.33;10.55;;;;;;;26.69;51.86;100707.66;5017889;28;20042;-89
2023/07/11 06:10:49;;;;;;;29.75;10.60;;;;;;;26.80;51.62;100715.19;5009668;28;20135;-90
2023/07/11 06:13:15;;;;;;;18.70;10.07;;;;;;;26.78;51.91;100714.56;5007370;28;20026;-84
2023/07/11 06:15:41;;;;;;;30.08;9.43;;;;;;;26.86;51.51;100722.56;5046793;28;20503;-86
2023/07/11 06:18:06;;;;;;;24.80;8.25;;;;;;;26.87;51.29;100710.44;5270483;22;20460;-80
2023/07/11 06:20:32;;;;;;;18.52;8.55;;;;;;;27.04;50.89;100717.03;5089749;28;20039;-82
2023/07/11 06:22:57;;;;;;;20.80;7.75;;;;;;;27.07;50.88;100714.88;5071527;28;20028;-79
2023/07/11 06:25:23;;;;;;;31.70;7.88;;;;;;;27.12;50.63;100701.25;5107617;28;20036;-89
2023/07/11 06:27:48;;;;;;;21.27;8.65;;;;;;;27.08;50.68;100688.97;5087116;28;20036;-90
2023/07/11 06:30:14;;;;;;;28.60;9.15;;;;;;;27.18;50.21;100694.81;5092647;28;20016;-91
2023/07/11 06:32:40;;;;;;;26.58;10.02;;;;;;;27.22;50.09;100702.38;5090971;28;20031;-86
2023/07/11 06:35:06;;;;;;;26.77;8.70;;;;;;;27.26;49.71;100689.78;5067748;28;20040;-84
2023/07/11 06:37:31;;;;;;;19.75;9.75;;;;;;;27.46;49.27;100711.69;5051916;28;20935;-85
2023/07/11 06:39:57;;;;;;;21.27;9.27;;;;;;;27.38;48.95;100689.84;5067976;28;20118;-84
2023/07/11 06:42:22;;;;;;;35.33;9.80;;;;;;;27.48;49.22;100706.75;5067416;28;20032;-83
2023/07/11 06:44:48;;;;;;;26.45;9.18;;;;;;;27.44;48.95;100694.47;5067428;28;20053;-84
2023/07/11 06:47:13;;;;;;;20.70;9.23;;;;;;;27.55;48.94;100697.28;5067221;28;20486;-83
2023/07/11 06:49:39;;;;;;;22.92;8.18;;;;;;;27.72;48.54;100713.22;5067014;28;20111;-89
2023/07/11 06:52:05;;;;;;;18.20;8.00;;;;;;;27.78;48.39;100706.75;5066340;28;20028;-85
2023/07/11 06:54:30;;;;;;;26.45;8.32;;;;;;;27.64;48.06;100678.47;5067225;28;20080;-85
2023/07/11 06:56:58;;;;;;;27.38;8.43;;;;;;;27.89;48.10;100698.47;5067887;28;20044;-85
2023/07/11 06:59:24;;;;;;;25.92;8.52;;;;;;;27.88;47.91;100710.63;5067228;28;20033;-84
2023/07/11 07:01:49;;;;;;;18.25;8.75;;;;;;;27.74;48.04;100672.34;5050552;28;20741;-84
2023/07/11 07:04:15;;;;;;;28.90;8.90;;;;;;;27.99;47.98;100715.34;5050557;28;20028;-84
2023/07/11 07:06:42;;;;;;;25.88;8.10;;;;;;;27.96;48.07;100702.00;5066857;28;20106;-84
2023/07/11 07:09:08;;;;;;;27.88;8.50;;;;;;;28.01;47.89;100696.59;5067238;28;20040;-84
2023/07/11 07:11:37;;;;;;;32.42;9.88;;;;;;;28.18;47.87;100710.63;5069016;28;20039;-83
2023/07/11 07:14:05;;;;;;;31.40;9.00;;;;;;;28.14;47.40;100689.19;5089842;28;20568;-84
2023/07/11 07:16:32;;;;;;;18.50;7.97;;;;;;;28.29;47.06;100684.03;5089337;28;20067;-84
2023/07/11 07:18:58;;;;;;;23.98;7.78;;;;;;;28.50;46.90;100700.06;5089263;28;20052;-84
2023/07/11 07:21:23;;;;;;;21.02;8.45;;;;;;;28.57;46.43;100706.31;5089800;28;20031;-85
2023/07/11 07:23:49;;;;;;;15.15;8.40;;;;;;;28.62;46.46;100709.22;5089438;28;20407;-85
2023/07/11 07:26:15;;;;;;;18.35;7.68;;;;;;;28.65;46.26;100700.47;5089461;28;20027;-83
2023/07/11 07:28:40;;;;;;;23.88;8.77;;;;;;;28.55;46.26;100669.75;5089405;28;20039;-84
2023/07/11 07:31:06;;;;;;;28.00;9.48;;;;;;;28.66;46.45;100704.03;5089609;28;20028;-85
2023/07/11 07:33:33;;;;;;;18.90;7.63;;;;;;;28.74;46.35;100701.78;5090319;28;20490;-85
2023/07/11 07:36:02;;;;;;;16.25;8.18;;;;;;;28.75;46.05;100695.13;5090616;28;20020;-82
2023/07/11 07:38:29;;;;;;;15.40;7.82;;;;;;;28.83;46.22;100689.25;5054395;28;20093;-91
2023/07/11 07:40:56;;;;;;;28.10;8.88;;;;;;;28.96;45.91;100683.44;5089674;28;20445;-84
2023/07/11 07:43:22;;;;;;;18.92;7.93;;;;;;;28.84;45.71;100663.22;5090228;28;20028;-86
2023/07/11 07:45:48;;;;;;;19.35;9.10;;;;;;;28.93;45.61;100672.84;5090060;28;20030;-85
2023/07/11 07:48:14;;;;;;;20.20;8.65;;;;;;;29.02;44.88;100676.91;5090939;28;20028;-86
2023/07/11 07:50:39;;;;;;;28.23;8.25;;;;;;;29.16;45.10;100677.50;5089940;28;20467;-84
2023/07/11 07:53:05;;;;;;;17.00;7.40;;;;;;;29.24;44.74;100668.81;5089948;28;20024;-84
2023/07/11 07:55:34;;;;;;;24.10;7.60;;;;;;;29.39;44.27;100676.59;5089463;28;20383;-84
2023/07/11 07:58:00;;;;;;;17.60;7.85;;;;;;;29.50;44.22;100679.34;5090207;28;20038;-84
2023/07/11 08:00:25;;;;;;;15.73;7.30;;;;;;;29.66;43.76;100683.25;5090658;28;20028;-87
2023/07/11 08:02:51;;;;;;;15.43;8.10;;;;;;;29.79;43.59;100687.63;5090152;28;20089;-83
2023/07/11 08:05:18;;;;;;;21.33;7.15;;;;;;;29.68;42.89;100664.41;5092276;28;20107;-83
2023/07/11 08:07:44;;;;;;;16.42;6.13;;;;;;;29.75;42.48;100664.28;5094097;28;20036;-83
2023/07/11 08:10:09;;;;;;;16.83;6.75;;;;;;;30.00;42.16;100687.78;5092511;28;20498;-82
2023/07/11 08:12:35;;;;;;;20.25;6.15;;;;;;;30.05;42.24;100671.22;5098468;28;20020;-82
2023/07/11 08:15:03;;;;;;;8.50;6.93;;;;;;;30.29;41.73;100691.31;5097406;28;20066;-82
2023/07/11 08:17:29;;;;;;;14.73;6.93;;;;;;;30.34;41.20;100674.75;5099148;28;20394;-86
2023/07/11 08:19:54;;;;;;;17.33;7.05;;;;;;;30.37;41.15;100677.00;5094933;28;20026;-94
2023/07/11 08:22:20;;;;;;;11.57;6.70;;;;;;;30.47;40.59;100682.75;5099117;28;20028;-94
2023/07/11 08:24:45;;;;;;;20.60;7.93;;;;;;;30.45;40.71;100656.34;5113922;28;20039;-93
2023/07/11 08:27:11;;;;;;;13.98;6.97;;;;;;;30.61;40.10;100663.81;5098001;28;20036;-93
2023/07/11 08:29:40;;;;;;;12.23;6.15;;;;;;;30.57;40.13;100659.88;5096565;28;20017;-90
2023/07/11 08:32:06;;;;;;;12.85;7.47;;;;;;;30.66;39.85;100672.22;5104553;28;20028;-94
2023/07/11 08:34:32;;;;;;;16.17;6.72;;;;;;;30.82;39.34;100665.78;5099165;28;20026;-93
2023/07/11 08:36:57;;;;;;;18.30;6.45;;;;;;;30.91;39.24;100663.41;5115200;28;20107;-92
2023/07/11 08:39:23;;;;;;;19.25;7.20;;;;;;;30.99;38.57;100669.38;5093366;28;20039;-92
2023/07/11 08:41:51;;;;;;;26.67;8.05;;;;;;;30.97;39.94;100679.94;5077509;28;20085;-93
2023/07/11 08:44:21;;;;;;;20.27;7.68;;;;;;;30.53;42.44;100658.69;5077336;28;20020;-88
2023/07/11 08:47:02;;;;;;;17.13;6.38;;;;;;;30.16;43.14;100645.31;5076928;28;20494;-93
2023/07/11 08:49:39;;;;;;;18.37;7.00;;;;;;;30.40;43.41;100640.44;5077528;28;20028;-93
2023/07/11 08:52:08;;;;;;;20.70;8.10;;;;;;;30.60;43.34;100664.91;5078052;28;20024;-93
2023/07/11 08:54:40;;;;;;;20.25;6.85;;;;;;;30.36;42.60;100655.06;5087889;28;20024;-93
2023/07/11 08:57:09;;;;;;;23.20;9.57;;;;;;;30.19;42.92;100641.19;5096738;28;20020;-94
2023/07/11 08:59:41;;;;;;;44.78;8.50;;;;;;;30.35;42.78;100664.50;5100016;28;20087;-93
2023/07/11 09:02:09;;;;;;;19.73;7.25;;;;;;;30.45;43.15;100664.69;5097378;28;20028;-94
2023/07/11 09:04:42;;;;;;;12.63;6.18;;;;;;;30.49;42.36;100654.72;5100135;28;20039;-93
2023/07/11 09:07:35;;;;;;;51.78;11.35;;;;;;;30.54;42.62;100658.44;5074947;28;20244;-93
2023/07/11 09:10:01;;;;;;;30.63;8.40;;;;;;;30.65;42.46;100648.31;5044625;28;20033;-93
2023/07/11 09:12:51;;;;;;;20.77;7.53;;;;;;;30.64;41.81;100644.69;5041653;28;20089;-93
2023/07/11 09:15:32;;;;;;;13.00;7.05;;;;;;;30.82;41.24;100654.69;5042600;28;20033;-92
2023/07/11 09:18:14;;;;;;;19.95;6.95;;;;;;;30.85;41.69;100670.84;5052954;28;20060;-93
2023/07/11 09:21:22;;;;;;;23.95;7.75;;;;;;;30.88;41.90;100664.75;5053951;28;20059;-94
2023/07/11 09:24:20;;;;;;;19.85;9.02;;;;;;;30.70;42.22;100656.75;5063361;28;20037;-93
2023/07/11 09:26:50;;;;;;;17.33;6.88;;;;;;;30.72;41.51;100648.97;5051836;28;20049;-92
2023/07/11 09:29:17;;;;;;;33.80;7.25;;;;;;;30.84;40.73;100646.91;5052135;28;20075;-92
2023/07/11 09:32:03;;;;;;;18.15;7.00;;;;;;;30.84;40.61;100649.69;5035184;28;20031;-93
2023/07/11 09:34:36;;;;;;;22.42;6.43;;;;;;;30.70;41.21;100637.31;5035475;28;20033;-95
2023/07/11 09:37:34;;;;;;;8.93;6.07;;;;;;;30.74;41.37;100657.88;5038097;28;20033;-95
2023/07/11 09:40:18;;;;;;;21.58;6.60;;;;;;;30.89;41.24;100644.19;5105107;28;20048;-92
2023/07/11 09:42:49;;;;;;;10.38;6.22;;;;;;;31.13;40.42;100647.63;5078665;28;20035;-92
2023/07/11 09:45:19;;;;;;;16.08;6.97;;;;;;;31.09;40.14;100644.50;5075417;28;20028;-95
2023/07/11 09:47:54;;;;;;;21.27;8.05;;;;;;;31.23;39.17;100631.88;5077191;28;20031;-93
2023/07/11 09:50:41;;;;;;;15.70;6.95;;;;;;;31.04;38.73;100607.50;5076783;28;20040;-95
2023/07/11 09:53:15;;;;;;;17.60;8.02;;;;;;;31.17;39.09;100621.81;5077215;28;20091;-93
2023/07/11 09:55:41;;;;;;;23.70;5.47;;;;;;;31.19;38.97;100641.84;5076359;28;20036;-93
2023/07/11 09:58:14;;;;;;;12.68;5.60;;;;;;;31.11;38.56;100636.75;5094699;28;20498;-94
2023/07/11 10:00:49;;;;;;;19.35;6.35;;;;;;;31.07;38.13;100618.91;5077143;28;20118;-94
2023/07/11 10:03:17;;;;;;;10.23;5.80;;;;;;;31.23;37.89;100634.66;5080107;28;20039;-94
2023/07/11 10:05:44;;;;;;;17.30;5.28;;;;;;;31.25;38.28;100639.97;5090084;28;20030;-91
2023/07/11 10:08:22;;;;;;;15.50;6.35;;;;;;;31.19;37.96;100644.63;5079310;28;20025;-95
2023/07/11 10:10:51;;;;;;;23.83;6.57;;;;;;;30.80;38.69;100601.31;5075621;28;20511;-95
2023/07/11 10:13:17;;;;;;;14.93;6.35;;;;;;;30.85;38.17;100622.78;5075492;28;20031;-93
2023/07/11 10:15:47;;;;;;;16.52;5.38;;;;;;;30.84;38.24;100618.31;5075914;28;20027;-92
2023/07/11 10:18:20;;;;;;;18.55;6.07;;;;;;;31.02;38.14;100632.75;5076275;28;20056;-92
2023/07/11 10:20:49;;;;;;;20.25;5.63;;;;;;;31.02;37.73;100632.75;5093674;28;20085;-94
2023/07/11 10:23:21;;;;;;;12.88;5.63;;;;;;;31.06;38.26;100622.81;5075088;28;20024;-94
2023/07/11 10:25:52;;;;;;;16.83;5.93;;;;;;;31.26;37.94;100608.28;5076502;28;20038;-94
2023/07/11 10:28:32;;;;;;;14.18;5.50;;;;;;;31.41;38.59;100613.16;5076605;28;20567;-94
2023/07/11 10:31:08;;;;;;;12.23;5.18;;;;;;;31.59;38.40;100622.00;5076807;28;20027;-94
2023/07/11 10:33:46;;;;;;;10.77;5.68;;;;;;;31.24;38.21;100605.78;5076181;28;20028;-94
2023/07/11 10:36:22;;;;;;;18.08;6.18;;;;;;;31.44;38.71;100615.41;5092709;28;20047;-95
2023/07/11 10:39:19;;;;;;;15.00;6.68;;;;;;;31.35;38.35;100611.44;5075225;28;20067;-94
2023/07/11 10:41:54;;;;;;;14.77;5.15;;;;;;;31.15;37.43;100609.28;5011187;28;20540;-91
2023/07/11 10:44:25;;;;;;;15.68;6.22;;;;;;;30.83;37.21;100611.91;4994451;28;20038;-93
2023/07/11 10:46:52;;;;;;;24.63;6.55;;;;;;;31.00;38.93;100636.88;4994832;28;20057;-93
2023/07/11 10:49:28;;;;;;;23.10;6.13;;;;;;;30.77;40.46;100624.88;5010372;28;20033;-93
2023/07/11 10:52:12;;;;;;;12.93;6.15;;;;;;;30.77;40.93;100627.66;4994930;28;20120;-93
2023/07/11 10:54:56;;;;;;;15.98;5.72;;;;;;;30.79;42.30;100621.88;5010430;28;20132;-94
2023/07/11 10:57:44;;;;;;;9.80;6.05;;;;;;;30.71;42.09;100611.19;5010674;28;20038;-94
2023/07/11 11:00:18;;;;;;;9.13;5.43;;;;;;;30.50;41.62;100587.03;4994126;28;20391;-93
2023/07/11 11:03:02;;;;;;;26.65;6.88;;;;;;;30.48;40.96;100619.75;5013613;28;20034;-93
2023/07/11 11:05:43;;;;;;;23.60;6.20;;;;;;;30.72;39.77;100610.09;5007187;28;20034;-94
2023/07/11 11:08:25;;;;;;;14.90;4.75;;;;;;;30.86;38.54;100600.28;5032764;28;20094;-95
2023/07/11 11:11:09;;;;;;;6.85;4.03;;;;;;;31.04;38.92;100591.63;5024535;28;20033;-94
2023/07/11 11:13:42;;;;;;;20.83;5.43;;;;;;;30.98;39.24;100581.56;4994876;28;20046;-94
2023/07/11 11:16:31;;;;;;;7.80;5.18;;;;;;;31.04;39.26;100586.09;4995285;28;20030;-96
2023/07/11 11:19:27;;;;;;;12.43;5.15;;;;;;;30.99;37.91;100593.53;5054494;28;20160;-94
2023/07/11 11:22:13;;;;;;;8.50;4.80;;;;;;;30.70;38.04;100573.44;5075512;28;20040;-93
2023/07/11 11:24:38;;;;;;;16.83;6.03;;;;;;;30.74;38.19;100594.00;5083628;28;20028;-91